Terminal Aerodrome Forecast
Issued by NWS Wakefield, VA

Current Version | Previous Version | Text Only | Print | Product List | Glossary On
Versions: 1 2 3 4 5 6 7 8 9 10 11 12 13 14 15 16 17 18 19 20 21
000
FTUS41 KAKQ 182346 RRA
TAFRIC
TAF
KRIC 182346Z 1900/1924 07004KT P6SM BKN250
     FM191100 05010KT P6SM BKN250
     FM191500 08012KT P6SM BKN100 OVC250
     FM191800 09010G18KT 4SM -RA BR OVC025
     FM192200 09014G22KT 2SM -RA BR OVC008=

USA.gov is the U.S. government's official web portal to all federal, state and local government web resources and services.